createdAt,value
2018-08-13T00:01:05.564Z,20.60
2018-08-13T00:03:34.062Z,20.60
2018-08-13T00:06:02.870Z,20.50
2018-08-13T00:08:31.437Z,20.50
2018-08-13T00:11:00.239Z,20.40
2018-08-13T00:13:28.745Z,20.40
2018-08-13T00:15:57.565Z,20.30
2018-08-13T00:18:26.698Z,20.30
2018-08-13T00:20:55.234Z,20.30
2018-08-13T00:23:23.717Z,20.20
2018-08-13T00:25:52.883Z,20.20
2018-08-13T00:28:21.358Z,20.10
2018-08-13T00:30:50.201Z,20.10
2018-08-13T00:33:18.682Z,20.00
2018-08-13T00:35:47.189Z,20.00
2018-08-13T00:38:16.001Z,20.00
2018-08-13T00:40:44.503Z,20.00
2018-08-13T00:43:13.027Z,20.00
2018-08-13T00:45:41.549Z,20.00
2018-08-13T00:48:10.077Z,19.90
2018-08-13T00:50:38.593Z,19.80
2018-08-13T00:53:07.097Z,19.80
2018-08-13T00:55:35.928Z,19.70
2018-08-13T00:58:04.764Z,19.70
2018-08-13T01:00:33.604Z,19.70
2018-08-13T01:03:02.437Z,19.60
2018-08-13T01:05:31.601Z,19.60
2018-08-13T01:08:00.389Z,19.60
2018-08-13T01:10:29.233Z,19.60
2018-08-13T01:12:57.725Z,19.50
2018-08-13T01:15:26.255Z,19.40
2018-08-13T01:17:54.759Z,19.40
2018-08-13T01:20:23.254Z,19.30
2018-08-13T01:22:52.096Z,19.30
2018-08-13T01:25:21.079Z,19.30
2018-08-13T01:27:49.925Z,19.30
2018-08-13T01:30:19.415Z,19.30
2018-08-13T01:32:48.229Z,19.30
2018-08-13T01:35:17.438Z,19.30
2018-08-13T01:37:45.929Z,19.30
2018-08-13T01:40:14.446Z,19.20
2018-08-13T01:42:43.278Z,19.20
2018-08-13T01:45:12.871Z,19.20
2018-08-13T01:47:41.966Z,19.10
2018-08-13T01:50:11.490Z,19.10
2018-08-13T01:52:40.627Z,19.10
2018-08-13T01:55:09.989Z,19.10
2018-08-13T01:57:38.526Z,19.10
2018-08-13T02:00:12.338Z,19.10
2018-08-13T02:02:41.539Z,19.00
2018-08-13T02:05:10.061Z,18.90
2018-08-13T02:07:38.932Z,18.90
2018-08-13T02:10:10.234Z,18.90
2018-08-13T02:12:38.993Z,18.80
2018-08-13T02:15:07.958Z,18.80
2018-08-13T02:17:36.470Z,18.80
2018-08-13T02:20:07.090Z,18.70
2018-08-13T02:22:35.643Z,18.70
2018-08-13T02:25:05.434Z,18.70
2018-08-13T02:27:34.479Z,18.70
2018-08-13T02:30:03.069Z,18.60
2018-08-13T02:32:32.251Z,18.60
2018-08-13T02:35:00.737Z,18.60
2018-08-13T02:37:29.597Z,18.60
2018-08-13T02:39:59.028Z,18.50
2018-08-13T02:42:27.556Z,18.50
2018-08-13T02:44:56.395Z,18.50
2018-08-13T02:47:25.238Z,18.50
2018-08-13T02:49:54.041Z,18.40
2018-08-13T02:52:22.517Z,18.40
2018-08-13T02:54:51.012Z,18.40
2018-08-13T02:57:20.160Z,18.30
2018-08-13T02:59:48.974Z,18.30
2018-08-13T03:02:17.487Z,18.30
2018-08-13T03:04:47.323Z,18.20
2018-08-13T03:07:16.594Z,18.20
2018-08-13T03:09:45.074Z,18.10
2018-08-13T03:12:13.581Z,18.10
2018-08-13T03:14:42.164Z,18.10
2018-08-13T03:17:11.742Z,18.10
2018-08-13T03:19:40.561Z,18.10
2018-08-13T03:22:09.357Z,18.10
2018-08-13T03:24:38.193Z,18.10
2018-08-13T03:27:06.693Z,18.10
2018-08-13T03:29:35.185Z,18.10
2018-08-13T03:32:04.041Z,18.10
2018-08-13T03:34:32.553Z,18.00
2018-08-13T03:37:01.365Z,18.00
2018-08-13T03:39:29.858Z,18.00
2018-08-13T03:41:58.684Z,18.00
2018-08-13T03:44:27.548Z,17.90
2018-08-13T03:46:56.045Z,17.90
2018-08-13T03:49:24.544Z,17.90
2018-08-13T03:51:53.400Z,17.90
2018-08-13T03:54:22.387Z,17.90
2018-08-13T03:56:50.881Z,17.80
2018-08-13T03:59:19.371Z,17.80
2018-08-13T04:01:48.548Z,17.80
2018-08-13T04:04:17.042Z,17.80
2018-08-13T04:06:45.549Z,17.80
2018-08-13T04:09:15.005Z,17.80
2018-08-13T04:11:44.150Z,17.80
2018-08-13T04:14:12.656Z,17.70
2018-08-13T04:16:45.687Z,17.70
2018-08-13T04:19:14.509Z,17.80
2018-08-13T04:21:43.665Z,17.80
2018-08-13T04:24:12.181Z,17.80
2018-08-13T04:26:40.689Z,17.70
2018-08-13T04:29:09.521Z,17.70
2018-08-13T04:31:38.030Z,17.80
2018-08-13T04:34:07.197Z,17.80
2018-08-13T04:36:36.041Z,17.80
2018-08-13T04:39:08.265Z,17.90
2018-08-13T04:41:37.085Z,17.90
2018-08-13T04:44:05.994Z,17.90
2018-08-13T04:46:34.507Z,18.00
2018-08-13T04:49:03.380Z,18.00
2018-08-13T04:51:31.873Z,18.10
2018-08-13T04:54:00.701Z,18.10
2018-08-13T04:56:29.345Z,18.20
2018-08-13T04:58:57.852Z,18.20
2018-08-13T05:01:26.765Z,18.30
2018-08-13T05:03:55.669Z,18.30
2018-08-13T05:06:25.536Z,18.40
2018-08-13T05:08:54.029Z,18.40
2018-08-13T05:11:22.591Z,18.40
2018-08-13T05:13:51.534Z,18.50
2018-08-13T05:16:20.058Z,18.60
2018-08-13T05:18:48.970Z,18.60
2018-08-13T05:21:18.216Z,18.70
2018-08-13T05:23:46.886Z,18.80
2018-08-13T05:26:15.364Z,18.90
2018-08-13T05:28:44.193Z,18.90
2018-08-13T05:31:12.730Z,19.00
2018-08-13T05:33:42.562Z,19.10
2018-08-13T05:36:11.050Z,19.20
2018-08-13T05:38:39.886Z,19.20
2018-08-13T05:41:08.693Z,19.30
2018-08-13T05:43:37.509Z,19.40
2018-08-13T05:46:06.018Z,19.50
2018-08-13T05:48:34.823Z,19.60
2018-08-13T05:51:03.652Z,19.70
2018-08-13T05:53:32.527Z,19.80
2018-08-13T05:56:01.065Z,19.90
2018-08-13T05:58:29.673Z,20.00
2018-08-13T06:00:58.201Z,20.10
2018-08-13T06:03:27.041Z,20.20
2018-08-13T06:05:55.553Z,20.30
2018-08-13T06:08:24.391Z,20.40
2018-08-13T06:10:53.249Z,20.50
2018-08-13T06:13:22.278Z,20.60
2018-08-13T06:15:52.239Z,20.70
2018-08-13T06:18:20.752Z,20.80
2018-08-13T06:20:49.585Z,20.90
2018-08-13T06:23:18.412Z,21.00
2018-08-13T06:25:46.939Z,21.10
2018-08-13T06:28:15.543Z,21.30
2018-08-13T06:30:44.168Z,21.40
2018-08-13T06:33:13.825Z,21.50
2018-08-13T06:35:42.649Z,21.60
2018-08-13T06:38:11.478Z,21.70
2018-08-13T06:40:40.316Z,21.80
2018-08-13T06:43:08.804Z,22.00
2018-08-13T06:45:37.352Z,22.10
2018-08-13T06:48:06.326Z,22.30
2018-08-13T06:50:34.804Z,22.40
2018-08-13T06:53:03.284Z,22.60
2018-08-13T06:55:32.320Z,22.70
2018-08-13T06:58:01.852Z,22.90
2018-08-13T07:00:30.317Z,23.00
2018-08-13T07:02:59.136Z,23.10
2018-08-13T07:05:27.878Z,23.30
2018-08-13T07:07:56.373Z,23.40
2018-08-13T07:10:25.672Z,23.60
2018-08-13T07:12:55.264Z,23.80
2018-08-13T07:15:24.493Z,23.90
2018-08-13T07:17:53.555Z,24.00
2018-08-13T07:20:21.820Z,24.10
2018-08-13T07:22:50.410Z,24.30
2018-08-13T07:25:19.519Z,24.40
2018-08-13T07:27:47.817Z,24.40
2018-08-13T07:30:16.801Z,24.60
2018-08-13T07:32:45.403Z,24.70
2018-08-13T07:35:13.962Z,24.90
2018-08-13T07:37:43.613Z,25.10
2018-08-13T07:40:13.821Z,25.30
2018-08-13T07:42:42.580Z,25.40
2018-08-13T07:45:11.380Z,25.60
2018-08-13T07:47:39.617Z,25.80
2018-08-13T07:50:09.653Z,26.00
2018-08-13T07:52:38.222Z,26.10
2018-08-13T07:55:06.763Z,26.30
2018-08-13T07:57:35.075Z,26.40
2018-08-13T08:00:03.515Z,26.60
2018-08-13T08:02:32.561Z,26.70
2018-08-13T08:05:00.783Z,26.90
2018-08-13T08:07:29.357Z,27.20
2018-08-13T08:09:57.566Z,27.50
2018-08-13T08:12:25.965Z,27.70
2018-08-13T08:14:54.193Z,27.90
2018-08-13T08:17:22.448Z,28.00
2018-08-13T08:19:51.011Z,28.10
2018-08-13T08:22:19.299Z,28.30
2018-08-13T08:24:48.201Z,28.50
2018-08-13T08:27:16.441Z,28.60
2018-08-13T08:29:45.008Z,28.80
2018-08-13T08:32:13.237Z,28.90
2018-08-13T08:34:41.951Z,29.00
2018-08-13T08:37:10.394Z,29.20
2018-08-13T08:39:38.952Z,29.30
2018-08-13T08:42:07.205Z,29.40
2018-08-13T08:44:36.101Z,29.50
2018-08-13T08:47:04.929Z,29.60
2018-08-13T08:49:33.502Z,29.80
2018-08-13T08:52:02.592Z,30.00
2018-08-13T08:54:31.162Z,30.20
2018-08-13T08:56:59.557Z,30.40
2018-08-13T08:59:27.774Z,30.60
2018-08-13T09:01:56.029Z,30.70
2018-08-13T09:04:24.594Z,30.70
2018-08-13T09:06:52.814Z,30.90
2018-08-13T09:09:21.372Z,31.10
2018-08-13T09:11:49.924Z,31.20
2018-08-13T09:14:18.207Z,31.50
2018-08-13T09:16:48.253Z,31.50
2018-08-13T09:19:27.903Z,31.50
2018-08-13T09:22:07.142Z,31.50
2018-08-13T09:24:46.825Z,31.50
2018-08-13T09:27:26.594Z,31.60
2018-08-13T09:31:08.909Z,31.60
2018-08-13T09:33:48.629Z,31.80
2018-08-13T09:36:17.201Z,32.00
2018-08-13T09:38:46.035Z,32.10
2018-08-13T09:48:13.799Z,32.70
2018-08-13T09:50:42.210Z,33.40
2018-08-13T09:53:10.765Z,33.30
2018-08-13T09:55:38.989Z,33.30
2018-08-13T09:58:07.970Z,33.40
2018-08-13T10:00:41.985Z,33.70
2018-08-13T10:03:10.574Z,33.70
2018-08-13T10:05:38.804Z,33.70
2018-08-13T10:08:07.054Z,33.50
2018-08-13T10:10:36.565Z,33.50
2018-08-13T10:13:04.830Z,33.80
2018-08-13T10:15:33.069Z,33.70
2018-08-13T10:18:02.041Z,33.80
2018-08-13T10:20:31.049Z,34.20
2018-08-13T10:23:00.141Z,34.10
2018-08-13T10:25:28.737Z,33.90
2018-08-13T10:27:56.966Z,33.70
2018-08-13T10:30:25.528Z,33.70
2018-08-13T10:32:53.746Z,33.80
2018-08-13T10:35:21.988Z,33.70
2018-08-13T10:37:50.238Z,33.80
2018-08-13T10:40:19.748Z,34.10
2018-08-13T10:42:48.387Z,34.20
2018-08-13T10:45:16.862Z,34.40
2018-08-13T10:47:45.143Z,34.60
2018-08-13T10:50:14.958Z,34.80
2018-08-13T10:52:43.541Z,34.80
2018-08-13T10:55:14.041Z,35.10
2018-08-13T10:57:42.697Z,35.30
2018-08-13T11:00:17.765Z,35.30
2018-08-13T11:02:46.002Z,35.30
2018-08-13T11:05:15.916Z,35.50
2018-08-13T11:07:44.508Z,35.60
2018-08-13T11:10:13.995Z,35.60
2018-08-13T11:12:42.459Z,35.60
2018-08-13T11:15:15.589Z,35.60
2018-08-13T11:17:43.847Z,35.60
2018-08-13T11:20:12.165Z,35.80
2018-08-13T11:22:41.694Z,35.80
2018-08-13T11:25:11.826Z,35.70
2018-08-13T11:27:41.081Z,35.40
2018-08-13T11:30:11.358Z,35.20
2018-08-13T11:32:39.797Z,35.30
2018-08-13T11:35:09.437Z,35.60
2018-08-13T11:37:37.687Z,35.80
2018-08-13T11:40:11.079Z,35.60
2018-08-13T11:42:40.052Z,35.80
2018-08-13T11:45:10.178Z,36.00
2018-08-13T11:47:39.813Z,35.90
2018-08-13T11:50:19.288Z,36.00
2018-08-13T11:52:48.679Z,35.80
2018-08-13T11:55:19.088Z,35.60
2018-08-13T11:57:48.761Z,35.70
2018-08-13T12:00:17.040Z,35.60
2018-08-13T12:02:45.293Z,35.20
2018-08-13T12:05:14.714Z,34.90
2018-08-13T12:07:43.614Z,34.90
2018-08-13T12:10:12.708Z,34.90
2018-08-13T12:12:42.209Z,34.80
2018-08-13T12:15:11.518Z,34.70
2018-08-13T12:17:40.094Z,34.50
2018-08-13T12:20:10.693Z,34.40
2018-08-13T12:22:39.254Z,34.30
2018-08-13T12:25:08.111Z,34.20
2018-08-13T12:27:36.683Z,34.20
2018-08-13T12:30:08.142Z,34.20
2018-08-13T12:32:36.722Z,34.30
2018-08-13T12:35:06.297Z,34.10
2018-08-13T12:37:35.501Z,34.10
2018-08-13T12:40:04.381Z,34.10
2018-08-13T12:42:33.167Z,34.10
2018-08-13T12:45:01.391Z,34.00
2018-08-13T12:47:30.129Z,34.10
2018-08-13T12:49:58.358Z,34.10
2018-08-13T12:52:26.620Z,34.00
2018-08-13T12:54:55.173Z,34.00
2018-08-13T12:57:23.717Z,33.90
2018-08-13T12:59:52.238Z,33.90
2018-08-13T13:02:20.483Z,33.80
2018-08-13T13:04:49.984Z,33.70
2018-08-13T13:07:18.233Z,33.50
2018-08-13T13:09:46.443Z,33.60
2018-08-13T13:12:14.780Z,33.70
2018-08-13T13:14:43.381Z,33.90
2018-08-13T13:17:12.434Z,34.00
2018-08-13T13:19:41.331Z,34.20
2018-08-13T13:22:09.598Z,34.50
2018-08-13T13:24:37.817Z,34.90
2018-08-13T13:27:06.375Z,35.20
2018-08-13T13:29:34.583Z,35.30
2018-08-13T13:32:03.149Z,35.40
2018-08-13T13:34:31.745Z,35.50
2018-08-13T13:37:00.154Z,35.30
2018-08-13T13:39:28.697Z,35.10
2018-08-13T13:41:56.925Z,35.00
2018-08-13T13:44:25.153Z,35.00
2018-08-13T13:46:53.359Z,34.90
2018-08-13T13:49:21.620Z,34.70
2018-08-13T13:51:49.833Z,34.50
2018-08-13T13:54:18.398Z,34.40
2018-08-13T13:56:48.026Z,34.30
2018-08-13T13:59:16.595Z,34.20
2018-08-13T14:01:45.472Z,34.10
2018-08-13T14:04:14.038Z,34.00
2018-08-13T14:06:42.564Z,33.80
2018-08-13T14:09:12.134Z,33.60
2018-08-13T14:11:40.353Z,33.60
2018-08-13T14:14:10.228Z,33.50
2018-08-13T14:16:38.534Z,33.50
2018-08-13T14:19:07.127Z,33.40
2018-08-13T14:21:35.361Z,33.20
2018-08-13T14:24:03.681Z,33.20
2018-08-13T14:26:32.224Z,32.80
2018-08-13T14:29:00.493Z,32.30
2018-08-13T14:31:28.747Z,32.20
2018-08-13T14:33:57.312Z,31.90
2018-08-13T14:36:25.524Z,31.80
2018-08-13T14:38:53.785Z,31.70
2018-08-13T14:41:22.342Z,31.60
2018-08-13T14:43:50.534Z,31.40
2018-08-13T14:46:18.765Z,31.40
2018-08-13T14:48:46.964Z,31.30
2018-08-13T14:51:15.286Z,31.30
2018-08-13T14:53:43.690Z,31.30
2018-08-13T14:56:12.271Z,31.10
2018-08-13T14:58:40.493Z,31.10
2018-08-13T15:01:09.062Z,31.00
2018-08-13T15:03:37.646Z,30.90
2018-08-13T15:06:06.324Z,30.90
2018-08-13T15:08:34.952Z,30.80
2018-08-13T15:11:03.182Z,30.70
2018-08-13T15:13:31.713Z,30.70
2018-08-13T15:16:00.256Z,30.70
2018-08-13T15:18:28.821Z,30.70
2018-08-13T15:20:57.052Z,30.70
2018-08-13T15:23:25.634Z,30.40
2018-08-13T15:25:53.962Z,30.50
2018-08-13T15:28:23.180Z,30.30
2018-08-13T15:30:52.128Z,30.20
2018-08-13T15:33:20.730Z,30.10
2018-08-13T15:35:49.765Z,30.00
2018-08-13T15:38:18.001Z,29.80
2018-08-13T15:40:46.233Z,29.60
2018-08-13T15:43:14.855Z,29.50
2018-08-13T15:45:43.092Z,29.50
2018-08-13T15:48:11.318Z,29.60
2018-08-13T15:50:39.836Z,29.50
2018-08-13T15:53:08.097Z,29.10
2018-08-13T15:55:36.693Z,29.00
2018-08-13T15:58:05.426Z,29.10
2018-08-13T16:00:33.661Z,28.90
2018-08-13T16:03:02.219Z,28.80
2018-08-13T16:05:30.457Z,28.70
2018-08-13T16:07:59.053Z,28.70
2018-08-13T16:10:27.452Z,28.60
2018-08-13T16:12:56.011Z,28.60
2018-08-13T16:15:24.695Z,28.60
2018-08-13T16:17:52.933Z,28.60
2018-08-13T16:20:21.513Z,28.50
2018-08-13T16:22:49.964Z,28.50
2018-08-13T16:25:18.437Z,28.40
2018-08-13T16:27:47.573Z,28.30
2018-08-13T16:30:31.896Z,28.20
2018-08-13T16:33:01.119Z,28.20
2018-08-13T16:35:29.717Z,28.10
2018-08-13T16:37:58.566Z,28.00
2018-08-13T16:40:27.707Z,27.90
2018-08-13T16:42:56.890Z,27.80
2018-08-13T16:45:25.911Z,27.80
2018-08-13T16:47:55.573Z,27.80
2018-08-13T16:50:29.495Z,27.70
2018-08-13T16:52:59.240Z,27.70
2018-08-13T16:55:28.456Z,27.70
2018-08-13T16:57:56.951Z,27.80
2018-08-13T17:00:26.798Z,27.70
2018-08-13T17:02:55.277Z,27.70
2018-08-13T17:05:24.767Z,27.70
2018-08-13T17:07:53.210Z,27.70
2018-08-13T17:10:23.109Z,27.70
2018-08-13T17:12:52.017Z,27.70
2018-08-13T17:15:20.410Z,27.60
2018-08-13T17:17:50.337Z,27.60
2018-08-13T17:20:22.533Z,27.60
2018-08-13T17:22:52.534Z,27.50
2018-08-13T17:25:20.909Z,27.60
2018-08-13T17:27:49.220Z,27.60
2018-08-13T17:30:24.597Z,27.50
2018-08-13T17:32:54.786Z,27.50
2018-08-13T17:35:25.885Z,27.50
2018-08-13T17:37:54.336Z,27.40
2018-08-13T17:40:23.724Z,27.30
2018-08-13T17:42:52.559Z,27.20
2018-08-13T17:45:20.975Z,27.20
2018-08-13T17:47:49.345Z,27.10
2018-08-13T17:50:19.532Z,27.00
2018-08-13T17:52:48.145Z,27.00
2018-08-13T17:55:16.838Z,26.90
2018-08-13T17:57:45.451Z,26.80
2018-08-13T18:00:16.583Z,26.70
2018-08-13T18:02:45.506Z,26.70
2018-08-13T18:05:15.923Z,26.70
2018-08-13T18:07:44.573Z,26.80
2018-08-13T18:10:15.850Z,26.70
2018-08-13T18:12:44.202Z,26.60
2018-08-13T18:15:14.890Z,26.50
2018-08-13T18:17:44.370Z,26.30
2018-08-13T18:20:12.909Z,26.20
2018-08-13T18:22:41.482Z,26.10
2018-08-13T18:25:11.549Z,26.10
2018-08-13T18:27:40.973Z,25.90
2018-08-13T18:30:13.972Z,25.90
2018-08-13T18:32:43.053Z,25.90
2018-08-13T18:35:11.703Z,25.90
2018-08-13T18:37:39.988Z,25.90
2018-08-13T18:40:11.256Z,25.90
2018-08-13T18:42:39.813Z,25.90
2018-08-13T18:45:09.441Z,25.90
2018-08-13T18:47:38.841Z,25.90
2018-08-13T18:50:10.294Z,25.90
2018-08-13T18:52:38.552Z,25.90
2018-08-13T18:55:07.777Z,25.90
2018-08-13T18:57:36.618Z,25.90
2018-08-13T19:00:07.727Z,25.90
2018-08-13T19:02:37.295Z,25.80
2018-08-13T19:05:05.677Z,25.80
2018-08-13T19:07:34.077Z,25.80
2018-08-13T19:10:02.390Z,25.80
2018-08-13T19:12:30.961Z,25.80
2018-08-13T19:14:59.588Z,25.80
2018-08-13T19:17:28.157Z,25.70
2018-08-13T19:19:56.746Z,25.70
2018-08-13T19:22:26.453Z,25.60
2018-08-13T19:24:55.797Z,25.60
2018-08-13T19:28:48.551Z,25.60
2018-08-13T19:31:16.770Z,25.60
2018-08-13T19:33:45.353Z,25.60
2018-08-13T19:36:13.629Z,25.50
2018-08-13T19:38:42.342Z,25.40
2018-08-13T19:41:10.893Z,25.40
2018-08-13T19:43:39.693Z,25.30
2018-08-13T19:46:07.999Z,25.40
2018-08-13T19:48:36.650Z,25.40
2018-08-13T19:51:04.863Z,25.40
2018-08-13T19:53:35.458Z,25.40
2018-08-13T19:56:03.703Z,25.50
2018-08-13T19:58:31.926Z,25.40
2018-08-13T20:01:00.542Z,25.30
2018-08-13T20:07:01.157Z,25.10
2018-08-13T20:09:29.417Z,24.90
2018-08-13T20:11:57.971Z,24.90
2018-08-13T20:14:26.554Z,25.00
2018-08-13T20:16:55.378Z,24.90
2018-08-13T20:19:23.701Z,24.70
2018-08-13T20:21:51.917Z,24.70
2018-08-13T20:24:20.534Z,24.60
2018-08-13T20:26:49.088Z,24.50
2018-08-13T20:29:17.698Z,24.30
2018-08-13T20:31:46.286Z,24.20
2018-08-13T20:34:14.509Z,24.30
2018-08-13T20:36:42.737Z,24.30
2018-08-13T20:39:14.614Z,24.20
2018-08-13T20:41:43.157Z,24.10
2018-08-13T20:44:12.257Z,24.00
2018-08-13T20:46:40.490Z,24.00
2018-08-13T20:49:09.697Z,23.90
2018-08-13T20:51:38.165Z,23.90
2018-08-13T20:54:07.186Z,23.90
2018-08-13T20:56:36.008Z,23.80
2018-08-13T20:59:04.446Z,23.70
2018-08-13T21:01:33.376Z,23.60
2018-08-13T21:04:02.158Z,23.60
2018-08-13T21:06:30.433Z,23.50
2018-08-13T21:08:58.681Z,23.40
2018-08-13T21:11:27.433Z,23.40
2018-08-13T21:13:55.986Z,23.40
2018-08-13T21:16:27.697Z,23.40
2018-08-13T21:18:58.445Z,23.40
2018-08-13T21:21:26.647Z,23.40
2018-08-13T21:23:56.130Z,23.40
2018-08-13T21:26:24.681Z,23.40
2018-08-13T21:28:53.625Z,23.30
2018-08-13T21:31:21.971Z,23.40
2018-08-13T21:33:50.333Z,23.40
2018-08-13T21:36:19.230Z,23.40
2018-08-13T21:38:48.113Z,23.30
2018-08-13T21:41:16.662Z,23.30
2018-08-13T21:43:44.889Z,23.30
2018-08-13T21:46:13.428Z,23.30
2018-08-13T21:48:41.920Z,23.30
2018-08-13T21:51:10.157Z,23.30
2018-08-13T21:53:38.735Z,23.20
2018-08-13T21:56:07.327Z,23.20
2018-08-13T21:58:36.208Z,23.20
2018-08-13T22:01:09.794Z,23.20
2018-08-13T22:03:38.049Z,23.20
2018-08-13T22:06:06.265Z,23.30
2018-08-13T22:08:34.498Z,23.30
2018-08-13T22:11:02.743Z,23.30
2018-08-13T22:13:31.300Z,23.30
2018-08-13T22:15:59.936Z,23.30
2018-08-13T22:18:28.808Z,23.30
2018-08-13T22:20:57.054Z,23.20
2018-08-13T22:23:25.273Z,23.20
2018-08-13T22:25:53.481Z,23.20
2018-08-13T22:28:22.036Z,23.20
2018-08-13T22:30:50.313Z,23.20
2018-08-13T22:33:18.539Z,23.20
2018-08-13T22:35:47.257Z,23.10
2018-08-13T22:38:15.765Z,23.10
2018-08-13T22:40:43.998Z,23.10
2018-08-13T22:43:12.209Z,23.10
2018-08-13T22:45:40.440Z,23.10
2018-08-13T22:48:08.667Z,23.10
2018-08-13T22:50:37.209Z,23.00
2018-08-13T22:53:05.509Z,23.00
2018-08-13T22:55:33.750Z,23.00
2018-08-13T22:58:02.047Z,22.90
2018-08-13T23:00:30.977Z,22.90
2018-08-13T23:02:59.597Z,22.90
2018-08-13T23:05:28.130Z,22.90
2018-08-13T23:07:56.352Z,22.80
2018-08-13T23:10:25.401Z,22.90
2018-08-13T23:12:54.905Z,22.80
2018-08-13T23:15:23.464Z,22.80
2018-08-13T23:17:52.537Z,22.80
2018-08-13T23:20:21.991Z,22.70
2018-08-13T23:22:52.835Z,22.70
2018-08-13T23:25:21.481Z,22.60
2018-08-13T23:27:51.211Z,22.50
2018-08-13T23:30:19.834Z,22.60
2018-08-13T23:32:49.614Z,22.60
2018-08-13T23:35:18.837Z,22.60
2018-08-13T23:37:47.125Z,22.60
2018-08-13T23:40:15.717Z,22.50
2018-08-13T23:42:44.180Z,22.50
2018-08-13T23:45:14.680Z,22.40
2018-08-13T23:47:42.924Z,22.40
2018-08-13T23:50:13.157Z,22.40
2018-08-13T23:52:41.409Z,22.40
2018-08-13T23:55:15.978Z,22.40
2018-08-13T23:57:44.316Z,22.40
